Terminal Aerodrome Forecast
Issued by NWS

Home | Current Version | Previous Version | Text Only | Print | Product List | Glossary Off
Versions: 1 2 3 4 5 6 7 8 9 10 11 12 13 14 15 16 17

000
FTUS43 KBIS 280305 AAC
TAFDIK
TAF AMD
KDIK 280305Z 2803/2824 32013KT P6SM VCSH BKN110
     FM280800 31008KT P6SM FEW180
     FM282200 29007KT P6SM FEW090 SCT200=

USA.gov is the U.S. government's official web portal to all federal, state and local government web resources and services.